sensor_id;sensor_type;location;lat;lon;timestamp;P1;durP1;ratioP1;P2;durP2;ratioP2
39434;SDS011;66825;51.880;-0.518;2023-01-30T00:01:40;0.90;;;0.65;;
39434;SDS011;66825;51.880;-0.518;2023-01-30T00:04:06;0.80;;;0.70;;
39434;SDS011;66825;51.880;-0.518;2023-01-30T00:06:32;1.33;;;0.82;;
39434;SDS011;66825;51.880;-0.518;2023-01-30T00:08:58;0.90;;;0.73;;
39434;SDS011;66825;51.880;-0.518;2023-01-30T00:11:23;0.80;;;0.60;;
39434;SDS011;66825;51.880;-0.518;2023-01-30T00:13:49;0.98;;;0.88;;
39434;SDS011;66825;51.880;-0.518;2023-01-30T00:16:15;1.08;;;0.80;;
39434;SDS011;66825;51.880;-0.518;2023-01-30T00:18:42;0.93;;;0.73;;
39434;SDS011;66825;51.880;-0.518;2023-01-30T00:21:09;1.63;;;0.80;;
39434;SDS011;66825;51.880;-0.518;2023-01-30T00:23:36;0.90;;;0.80;;
39434;SDS011;66825;51.880;-0.518;2023-01-30T00:26:02;1.30;;;1.00;;
39434;SDS011;66825;51.880;-0.518;2023-01-30T00:28:29;1.00;;;0.90;;
39434;SDS011;66825;51.880;-0.518;2023-01-30T00:30:54;1.00;;;0.80;;
39434;SDS011;66825;51.880;-0.518;2023-01-30T00:33:20;1.35;;;0.80;;
39434;SDS011;66825;51.880;-0.518;2023-01-30T00:35:48;1.20;;;0.80;;
39434;SDS011;66825;51.880;-0.518;2023-01-30T00:38:15;0.98;;;0.82;;
39434;SDS011;66825;51.880;-0.518;2023-01-30T00:40:41;0.68;;;0.68;;
39434;SDS011;66825;51.880;-0.518;2023-01-30T00:43:14;1.33;;;1.10;;
39434;SDS011;66825;51.880;-0.518;2023-01-30T00:46:00;0.80;;;0.80;;
39434;SDS011;66825;51.880;-0.518;2023-01-30T00:48:47;0.95;;;0.82;;
39434;SDS011;66825;51.880;-0.518;2023-01-30T00:51:13;1.23;;;0.90;;
39434;SDS011;66825;51.880;-0.518;2023-01-30T00:53:38;1.25;;;0.95;;
39434;SDS011;66825;51.880;-0.518;2023-01-30T00:56:04;0.85;;;0.82;;
39434;SDS011;66825;51.880;-0.518;2023-01-30T00:58:30;0.90;;;0.70;;
39434;SDS011;66825;51.880;-0.518;2023-01-30T01:00:56;1.05;;;0.77;;
39434;SDS011;66825;51.880;-0.518;2023-01-30T01:03:21;1.50;;;0.95;;
39434;SDS011;66825;51.880;-0.518;2023-01-30T01:05:47;1.30;;;0.82;;
39434;SDS011;66825;51.880;-0.518;2023-01-30T01:08:13;1.60;;;1.08;;
39434;SDS011;66825;51.880;-0.518;2023-01-30T01:10:39;1.00;;;0.90;;
39434;SDS011;66825;51.880;-0.518;2023-01-30T01:13:04;1.27;;;0.95;;
39434;SDS011;66825;51.880;-0.518;2023-01-30T01:15:31;0.90;;;0.80;;
39434;SDS011;66825;51.880;-0.518;2023-01-30T01:17:57;0.75;;;0.75;;
39434;SDS011;66825;51.880;-0.518;2023-01-30T01:20:22;1.60;;;1.02;;
39434;SDS011;66825;51.880;-0.518;2023-01-30T01:22:51;0.90;;;0.80;;
39434;SDS011;66825;51.880;-0.518;2023-01-30T01:25:18;1.13;;;0.90;;
39434;SDS011;66825;51.880;-0.518;2023-01-30T01:27:44;1.40;;;0.90;;
39434;SDS011;66825;51.880;-0.518;2023-01-30T01:30:11;1.55;;;1.00;;
39434;SDS011;66825;51.880;-0.518;2023-01-30T01:32:37;1.17;;;0.90;;
39434;SDS011;66825;51.880;-0.518;2023-01-30T01:35:02;1.58;;;1.20;;
39434;SDS011;66825;51.880;-0.518;2023-01-30T01:37:28;1.30;;;1.00;;
39434;SDS011;66825;51.880;-0.518;2023-01-30T01:39:54;1.20;;;0.90;;
39434;SDS011;66825;51.880;-0.518;2023-01-30T01:42:38;1.23;;;1.02;;
39434;SDS011;66825;51.880;-0.518;2023-01-30T01:50:24;1.52;;;1.00;;
39434;SDS011;66825;51.880;-0.518;2023-01-30T01:53:11;1.58;;;1.00;;
39434;SDS011;66825;51.880;-0.518;2023-01-30T01:55:38;1.30;;;1.00;;
39434;SDS011;66825;51.880;-0.518;2023-01-30T01:58:09;2.10;;;1.00;;
39434;SDS011;66825;51.880;-0.518;2023-01-30T02:00:39;1.70;;;1.10;;
39434;SDS011;66825;51.880;-0.518;2023-01-30T02:03:05;1.17;;;0.80;;
39434;SDS011;66825;51.880;-0.518;2023-01-30T02:05:34;1.40;;;1.00;;
39434;SDS011;66825;51.880;-0.518;2023-01-30T02:08:09;1.58;;;0.90;;
39434;SDS011;66825;51.880;-0.518;2023-01-30T02:10:47;1.23;;;1.10;;
39434;SDS011;66825;51.880;-0.518;2023-01-30T02:13:15;1.38;;;1.00;;
39434;SDS011;66825;51.880;-0.518;2023-01-30T02:15:41;1.73;;;1.05;;
39434;SDS011;66825;51.880;-0.518;2023-01-30T02:18:07;1.08;;;0.80;;
39434;SDS011;66825;51.880;-0.518;2023-01-30T02:28:39;1.25;;;1.00;;
39434;SDS011;66825;51.880;-0.518;2023-01-30T02:42:59;1.53;;;0.90;;
39434;SDS011;66825;51.880;-0.518;2023-01-30T02:45:42;1.35;;;0.93;;
39434;SDS011;66825;51.880;-0.518;2023-01-30T02:48:29;1.35;;;0.90;;
39434;SDS011;66825;51.880;-0.518;2023-01-30T02:51:34;1.58;;;1.15;;
39434;SDS011;66825;51.880;-0.518;2023-01-30T02:54:03;1.92;;;0.95;;
39434;SDS011;66825;51.880;-0.518;2023-01-30T02:56:41;1.63;;;1.15;;
39434;SDS011;66825;51.880;-0.518;2023-01-30T02:59:08;1.92;;;0.95;;
39434;SDS011;66825;51.880;-0.518;2023-01-30T03:10:21;1.27;;;0.82;;
39434;SDS011;66825;51.880;-0.518;2023-01-30T03:15:33;1.45;;;0.80;;
39434;SDS011;66825;51.880;-0.518;2023-01-30T03:18:02;1.50;;;1.00;;
39434;SDS011;66825;51.880;-0.518;2023-01-30T03:20:29;1.35;;;0.90;;
39434;SDS011;66825;51.880;-0.518;2023-01-30T03:22:55;1.40;;;1.00;;
39434;SDS011;66825;51.880;-0.518;2023-01-30T03:25:22;1.05;;;0.80;;
39434;SDS011;66825;51.880;-0.518;2023-01-30T03:27:51;1.23;;;1.00;;
39434;SDS011;66825;51.880;-0.518;2023-01-30T03:30:18;1.40;;;1.00;;
39434;SDS011;66825;51.880;-0.518;2023-01-30T03:32:44;1.90;;;1.10;;
39434;SDS011;66825;51.880;-0.518;2023-01-30T03:35:10;1.58;;;0.98;;
39434;SDS011;66825;51.880;-0.518;2023-01-30T03:37:35;1.25;;;0.90;;
39434;SDS011;66825;51.880;-0.518;2023-01-30T03:40:01;1.10;;;1.00;;
39434;SDS011;66825;51.880;-0.518;2023-01-30T03:42:28;1.42;;;0.90;;
39434;SDS011;66825;51.880;-0.518;2023-01-30T03:44:53;1.50;;;1.00;;
39434;SDS011;66825;51.880;-0.518;2023-01-30T03:47:19;1.23;;;0.90;;
39434;SDS011;66825;51.880;-0.518;2023-01-30T03:49:44;1.30;;;0.90;;
39434;SDS011;66825;51.880;-0.518;2023-01-30T03:52:09;1.45;;;0.80;;
39434;SDS011;66825;51.880;-0.518;2023-01-30T03:54:35;1.58;;;1.00;;
39434;SDS011;66825;51.880;-0.518;2023-01-30T03:57:00;1.00;;;0.82;;
39434;SDS011;66825;51.880;-0.518;2023-01-30T03:59:26;1.88;;;1.08;;
39434;SDS011;66825;51.880;-0.518;2023-01-30T04:01:51;1.00;;;0.85;;
39434;SDS011;66825;51.880;-0.518;2023-01-30T04:04:17;1.30;;;0.93;;
39434;SDS011;66825;51.880;-0.518;2023-01-30T04:06:42;1.27;;;0.90;;
39434;SDS011;66825;51.880;-0.518;2023-01-30T04:09:08;1.00;;;0.90;;
39434;SDS011;66825;51.880;-0.518;2023-01-30T04:11:33;1.30;;;0.90;;
39434;SDS011;66825;51.880;-0.518;2023-01-30T04:13:59;1.75;;;1.00;;
39434;SDS011;66825;51.880;-0.518;2023-01-30T04:16:24;1.70;;;1.00;;
39434;SDS011;66825;51.880;-0.518;2023-01-30T04:18:51;1.50;;;0.90;;
39434;SDS011;66825;51.880;-0.518;2023-01-30T04:21:17;1.00;;;0.82;;
39434;SDS011;66825;51.880;-0.518;2023-01-30T04:23:43;1.33;;;0.90;;
39434;SDS011;66825;51.880;-0.518;2023-01-30T04:26:09;1.52;;;0.90;;
39434;SDS011;66825;51.880;-0.518;2023-01-30T04:28:35;1.52;;;0.90;;
39434;SDS011;66825;51.880;-0.518;2023-01-30T04:31:01;1.10;;;0.80;;
39434;SDS011;66825;51.880;-0.518;2023-01-30T04:33:27;1.00;;;0.70;;
39434;SDS011;66825;51.880;-0.518;2023-01-30T04:35:56;1.23;;;0.82;;
39434;SDS011;66825;51.880;-0.518;2023-01-30T04:38:23;1.25;;;0.90;;
39434;SDS011;66825;51.880;-0.518;2023-01-30T04:40:50;1.30;;;0.82;;
39434;SDS011;66825;51.880;-0.518;2023-01-30T04:43:16;1.35;;;0.90;;
39434;SDS011;66825;51.880;-0.518;2023-01-30T04:45:42;1.05;;;0.70;;
39434;SDS011;66825;51.880;-0.518;2023-01-30T04:48:11;1.08;;;0.88;;
39434;SDS011;66825;51.880;-0.518;2023-01-30T04:50:37;1.15;;;0.95;;
39434;SDS011;66825;51.880;-0.518;2023-01-30T04:53:04;1.63;;;1.00;;
39434;SDS011;66825;51.880;-0.518;2023-01-30T04:55:29;1.52;;;0.85;;
39434;SDS011;66825;51.880;-0.518;2023-01-30T04:57:55;1.13;;;0.80;;
39434;SDS011;66825;51.880;-0.518;2023-01-30T05:00:21;1.10;;;0.90;;
39434;SDS011;66825;51.880;-0.518;2023-01-30T05:02:47;1.40;;;0.90;;
39434;SDS011;66825;51.880;-0.518;2023-01-30T05:05:13;1.63;;;1.00;;
39434;SDS011;66825;51.880;-0.518;2023-01-30T05:07:38;1.60;;;0.88;;
39434;SDS011;66825;51.880;-0.518;2023-01-30T05:10:04;1.83;;;1.02;;
39434;SDS011;66825;51.880;-0.518;2023-01-30T05:12:30;1.15;;;0.90;;
39434;SDS011;66825;51.880;-0.518;2023-01-30T05:14:55;1.10;;;0.80;;
39434;SDS011;66825;51.880;-0.518;2023-01-30T05:17:21;1.58;;;0.90;;
39434;SDS011;66825;51.880;-0.518;2023-01-30T05:19:46;1.50;;;0.82;;
39434;SDS011;66825;51.880;-0.518;2023-01-30T05:22:12;1.50;;;1.00;;
39434;SDS011;66825;51.880;-0.518;2023-01-30T05:24:37;1.35;;;0.77;;
39434;SDS011;66825;51.880;-0.518;2023-01-30T05:27:03;2.15;;;1.08;;
39434;SDS011;66825;51.880;-0.518;2023-01-30T05:29:29;1.55;;;0.70;;
39434;SDS011;66825;51.880;-0.518;2023-01-30T05:31:54;1.60;;;0.90;;
39434;SDS011;66825;51.880;-0.518;2023-01-30T05:34:20;1.27;;;0.80;;
39434;SDS011;66825;51.880;-0.518;2023-01-30T05:36:46;1.48;;;0.80;;
39434;SDS011;66825;51.880;-0.518;2023-01-30T05:39:11;1.50;;;0.90;;
39434;SDS011;66825;51.880;-0.518;2023-01-30T05:41:37;1.83;;;1.00;;
39434;SDS011;66825;51.880;-0.518;2023-01-30T05:44:02;1.13;;;0.77;;
39434;SDS011;66825;51.880;-0.518;2023-01-30T05:46:28;1.60;;;0.98;;
39434;SDS011;66825;51.880;-0.518;2023-01-30T05:48:53;1.75;;;0.85;;
39434;SDS011;66825;51.880;-0.518;2023-01-30T05:51:23;1.20;;;0.85;;
39434;SDS011;66825;51.880;-0.518;2023-01-30T05:53:50;1.85;;;0.90;;
39434;SDS011;66825;51.880;-0.518;2023-01-30T05:56:16;1.73;;;0.80;;
39434;SDS011;66825;51.880;-0.518;2023-01-30T05:58:42;1.25;;;0.98;;
39434;SDS011;66825;51.880;-0.518;2023-01-30T06:01:11;1.83;;;1.02;;
39434;SDS011;66825;51.880;-0.518;2023-01-30T06:03:37;1.30;;;0.90;;
39434;SDS011;66825;51.880;-0.518;2023-01-30T06:06:03;1.50;;;0.90;;
39434;SDS011;66825;51.880;-0.518;2023-01-30T06:08:30;1.55;;;0.90;;
39434;SDS011;66825;51.880;-0.518;2023-01-30T06:11:29;1.25;;;0.90;;
39434;SDS011;66825;51.880;-0.518;2023-01-30T06:13:48;2.55;;;1.00;;
39434;SDS011;66825;51.880;-0.518;2023-01-30T06:16:14;1.40;;;0.82;;
39434;SDS011;66825;51.880;-0.518;2023-01-30T06:18:41;1.40;;;0.85;;
39434;SDS011;66825;51.880;-0.518;2023-01-30T06:21:07;1.30;;;0.75;;
39434;SDS011;66825;51.880;-0.518;2023-01-30T06:23:34;1.38;;;0.70;;
39434;SDS011;66825;51.880;-0.518;2023-01-30T06:26:00;1.70;;;0.85;;
39434;SDS011;66825;51.880;-0.518;2023-01-30T06:28:26;1.73;;;0.93;;
39434;SDS011;66825;51.880;-0.518;2023-01-30T06:30:51;1.73;;;0.90;;
39434;SDS011;66825;51.880;-0.518;2023-01-30T06:33:18;1.42;;;0.90;;
39434;SDS011;66825;51.880;-0.518;2023-01-30T06:35:46;2.00;;;0.90;;
39434;SDS011;66825;51.880;-0.518;2023-01-30T06:38:13;1.70;;;0.98;;
39434;SDS011;66825;51.880;-0.518;2023-01-30T06:40:39;1.67;;;0.90;;
39434;SDS011;66825;51.880;-0.518;2023-01-30T06:43:08;1.80;;;0.82;;
39434;SDS011;66825;51.880;-0.518;2023-01-30T06:45:33;1.58;;;0.88;;
39434;SDS011;66825;51.880;-0.518;2023-01-30T06:47:59;1.38;;;0.90;;
39434;SDS011;66825;51.880;-0.518;2023-01-30T06:50:25;1.48;;;0.80;;
39434;SDS011;66825;51.880;-0.518;2023-01-30T06:52:52;1.98;;;1.00;;
39434;SDS011;66825;51.880;-0.518;2023-01-30T06:55:20;1.20;;;0.93;;
39434;SDS011;66825;51.880;-0.518;2023-01-30T06:57:47;1.50;;;0.77;;
39434;SDS011;66825;51.880;-0.518;2023-01-30T07:00:14;1.45;;;0.93;;
39434;SDS011;66825;51.880;-0.518;2023-01-30T07:02:42;1.80;;;0.90;;
39434;SDS011;66825;51.880;-0.518;2023-01-30T07:05:08;2.25;;;1.10;;
39434;SDS011;66825;51.880;-0.518;2023-01-30T07:07:34;2.22;;;1.00;;
39434;SDS011;66825;51.880;-0.518;2023-01-30T07:10:01;1.75;;;0.90;;
39434;SDS011;66825;51.880;-0.518;2023-01-30T07:12:27;1.63;;;1.00;;
39434;SDS011;66825;51.880;-0.518;2023-01-30T07:14:53;1.92;;;0.80;;
39434;SDS011;66825;51.880;-0.518;2023-01-30T07:17:18;1.75;;;1.00;;
39434;SDS011;66825;51.880;-0.518;2023-01-30T07:19:44;1.77;;;1.00;;
39434;SDS011;66825;51.880;-0.518;2023-01-30T07:22:10;2.45;;;1.00;;
39434;SDS011;66825;51.880;-0.518;2023-01-30T07:24:36;1.88;;;0.90;;
39434;SDS011;66825;51.880;-0.518;2023-01-30T07:27:02;2.00;;;1.00;;
39434;SDS011;66825;51.880;-0.518;2023-01-30T07:29:28;2.53;;;0.95;;
39434;SDS011;66825;51.880;-0.518;2023-01-30T07:31:53;1.92;;;1.00;;
39434;SDS011;66825;51.880;-0.518;2023-01-30T07:34:19;2.17;;;0.98;;
39434;SDS011;66825;51.880;-0.518;2023-01-30T07:36:44;1.92;;;0.95;;
39434;SDS011;66825;51.880;-0.518;2023-01-30T07:39:09;1.75;;;0.93;;
39434;SDS011;66825;51.880;-0.518;2023-01-30T07:41:35;1.35;;;0.80;;
39434;SDS011;66825;51.880;-0.518;2023-01-30T07:44:01;2.45;;;1.00;;
39434;SDS011;66825;51.880;-0.518;2023-01-30T07:46:27;2.17;;;1.00;;
39434;SDS011;66825;51.880;-0.518;2023-01-30T07:49:05;1.48;;;0.80;;
39434;SDS011;66825;51.880;-0.518;2023-01-30T07:51:32;1.50;;;0.90;;
39434;SDS011;66825;51.880;-0.518;2023-01-30T07:53:57;1.63;;;0.90;;
39434;SDS011;66825;51.880;-0.518;2023-01-30T07:56:25;2.35;;;1.00;;
39434;SDS011;66825;51.880;-0.518;2023-01-30T07:58:50;2.30;;;1.10;;
39434;SDS011;66825;51.880;-0.518;2023-01-30T08:01:16;3.15;;;1.02;;
39434;SDS011;66825;51.880;-0.518;2023-01-30T08:03:42;2.72;;;1.08;;
39434;SDS011;66825;51.880;-0.518;2023-01-30T08:06:10;2.45;;;1.10;;
39434;SDS011;66825;51.880;-0.518;2023-01-30T08:08:38;2.88;;;1.10;;
39434;SDS011;66825;51.880;-0.518;2023-01-30T08:11:03;2.22;;;1.00;;
39434;SDS011;66825;51.880;-0.518;2023-01-30T08:13:29;2.10;;;0.85;;
39434;SDS011;66825;51.880;-0.518;2023-01-30T08:15:57;1.98;;;1.00;;
39434;SDS011;66825;51.880;-0.518;2023-01-30T08:18:24;2.15;;;0.95;;
39434;SDS011;66825;51.880;-0.518;2023-01-30T08:20:49;1.75;;;0.90;;
39434;SDS011;66825;51.880;-0.518;2023-01-30T08:23:15;2.00;;;1.05;;
39434;SDS011;66825;51.880;-0.518;2023-01-30T08:25:40;2.53;;;1.00;;
39434;SDS011;66825;51.880;-0.518;2023-01-30T08:28:06;2.30;;;0.90;;
39434;SDS011;66825;51.880;-0.518;2023-01-30T08:30:31;1.92;;;0.90;;
39434;SDS011;66825;51.880;-0.518;2023-01-30T08:32:57;2.17;;;0.95;;
39434;SDS011;66825;51.880;-0.518;2023-01-30T08:35:23;2.72;;;1.10;;
39434;SDS011;66825;51.880;-0.518;2023-01-30T08:37:48;2.72;;;1.20;;
39434;SDS011;66825;51.880;-0.518;2023-01-30T08:40:14;2.45;;;1.05;;
39434;SDS011;66825;51.880;-0.518;2023-01-30T08:42:42;2.47;;;1.20;;
39434;SDS011;66825;51.880;-0.518;2023-01-30T08:45:09;2.00;;;0.90;;
39434;SDS011;66825;51.880;-0.518;2023-01-30T08:47:35;1.85;;;0.98;;
39434;SDS011;66825;51.880;-0.518;2023-01-30T08:50:01;2.80;;;1.10;;
39434;SDS011;66825;51.880;-0.518;2023-01-30T08:52:28;1.85;;;0.90;;
39434;SDS011;66825;51.880;-0.518;2023-01-30T08:54:53;2.40;;;1.05;;
39434;SDS011;66825;51.880;-0.518;2023-01-30T08:57:19;2.95;;;1.20;;
39434;SDS011;66825;51.880;-0.518;2023-01-30T08:59:44;3.35;;;1.20;;
39434;SDS011;66825;51.880;-0.518;2023-01-30T09:02:10;3.65;;;1.10;;
39434;SDS011;66825;51.880;-0.518;2023-01-30T09:04:36;4.45;;;1.15;;
39434;SDS011;66825;51.880;-0.518;2023-01-30T09:07:02;3.80;;;1.17;;
39434;SDS011;66825;51.880;-0.518;2023-01-30T09:09:27;5.35;;;1.52;;
39434;SDS011;66825;51.880;-0.518;2023-01-30T09:11:53;5.88;;;1.30;;
39434;SDS011;66825;51.880;-0.518;2023-01-30T09:14:19;2.65;;;1.13;;
39434;SDS011;66825;51.880;-0.518;2023-01-30T09:16:48;4.72;;;1.27;;
39434;SDS011;66825;51.880;-0.518;2023-01-30T09:19:25;5.70;;;1.50;;
39434;SDS011;66825;51.880;-0.518;2023-01-30T09:21:52;6.53;;;1.60;;
39434;SDS011;66825;51.880;-0.518;2023-01-30T09:24:20;6.45;;;1.45;;
39434;SDS011;66825;51.880;-0.518;2023-01-30T09:26:50;4.13;;;1.42;;
39434;SDS011;66825;51.880;-0.518;2023-01-30T09:29:17;6.00;;;1.67;;
39434;SDS011;66825;51.880;-0.518;2023-01-30T09:31:43;5.70;;;1.50;;
39434;SDS011;66825;51.880;-0.518;2023-01-30T09:34:08;4.57;;;1.38;;
39434;SDS011;66825;51.880;-0.518;2023-01-30T09:36:34;11.10;;;2.40;;
39434;SDS011;66825;51.880;-0.518;2023-01-30T09:38:59;19.27;;;4.18;;
39434;SDS011;66825;51.880;-0.518;2023-01-30T09:41:38;14.05;;;2.88;;
39434;SDS011;66825;51.880;-0.518;2023-01-30T09:49:39;6.70;;;1.90;;
39434;SDS011;66825;51.880;-0.518;2023-01-30T09:55:16;6.60;;;1.70;;
39434;SDS011;66825;51.880;-0.518;2023-01-30T09:57:47;5.47;;;1.50;;
39434;SDS011;66825;51.880;-0.518;2023-01-30T10:00:24;4.80;;;1.58;;
39434;SDS011;66825;51.880;-0.518;2023-01-30T10:03:09;5.90;;;1.75;;
39434;SDS011;66825;51.880;-0.518;2023-01-30T10:10:48;4.82;;;1.75;;
39434;SDS011;66825;51.880;-0.518;2023-01-30T10:19:58;16.38;;;4.25;;
39434;SDS011;66825;51.880;-0.518;2023-01-30T10:27:30;10.70;;;2.60;;
39434;SDS011;66825;51.880;-0.518;2023-01-30T10:29:59;11.60;;;2.97;;
39434;SDS011;66825;51.880;-0.518;2023-01-30T10:32:37;11.60;;;2.40;;
39434;SDS011;66825;51.880;-0.518;2023-01-30T10:35:30;7.55;;;2.03;;
39434;SDS011;66825;51.880;-0.518;2023-01-30T10:38:02;19.25;;;4.72;;
39434;SDS011;66825;51.880;-0.518;2023-01-30T10:43:37;9.77;;;2.25;;
39434;SDS011;66825;51.880;-0.518;2023-01-30T10:46:13;9.18;;;2.13;;
39434;SDS011;66825;51.880;-0.518;2023-01-30T10:48:54;7.78;;;2.28;;
39434;SDS011;66825;51.880;-0.518;2023-01-30T10:58:00;6.15;;;2.03;;
39434;SDS011;66825;51.880;-0.518;2023-01-30T11:00:28;7.70;;;2.20;;
39434;SDS011;66825;51.880;-0.518;2023-01-30T11:05:29;11.80;;;2.83;;
39434;SDS011;66825;51.880;-0.518;2023-01-30T11:08:04;8.70;;;2.38;;
39434;SDS011;66825;51.880;-0.518;2023-01-30T11:10:42;11.60;;;2.88;;
39434;SDS011;66825;51.880;-0.518;2023-01-30T11:13:13;12.43;;;2.70;;
39434;SDS011;66825;51.880;-0.518;2023-01-30T11:15:43;10.57;;;2.65;;
39434;SDS011;66825;51.880;-0.518;2023-01-30T11:18:12;10.93;;;2.63;;
39434;SDS011;66825;51.880;-0.518;2023-01-30T11:20:39;12.98;;;2.78;;
39434;SDS011;66825;51.880;-0.518;2023-01-30T11:23:10;9.23;;;2.92;;
39434;SDS011;66825;51.880;-0.518;2023-01-30T11:25:54;14.95;;;2.90;;
39434;SDS011;66825;51.880;-0.518;2023-01-30T11:28:21;16.48;;;3.20;;
39434;SDS011;66825;51.880;-0.518;2023-01-30T11:30:52;16.88;;;3.65;;
39434;SDS011;66825;51.880;-0.518;2023-01-30T11:33:22;14.30;;;3.85;;
39434;SDS011;66825;51.880;-0.518;2023-01-30T11:38:27;13.25;;;3.55;;
39434;SDS011;66825;51.880;-0.518;2023-01-30T11:43:45;14.65;;;3.90;;
39434;SDS011;66825;51.880;-0.518;2023-01-30T11:46:11;9.50;;;2.90;;
39434;SDS011;66825;51.880;-0.518;2023-01-30T11:48:44;13.38;;;3.25;;
39434;SDS011;66825;51.880;-0.518;2023-01-30T11:51:22;24.27;;;5.03;;
39434;SDS011;66825;51.880;-0.518;2023-01-30T11:53:58;13.48;;;3.63;;
39434;SDS011;66825;51.880;-0.518;2023-01-30T11:56:33;16.00;;;4.03;;
39434;SDS011;66825;51.880;-0.518;2023-01-30T11:59:06;15.95;;;3.97;;
39434;SDS011;66825;51.880;-0.518;2023-01-30T12:01:44;12.65;;;3.55;;
39434;SDS011;66825;51.880;-0.518;2023-01-30T12:04:10;18.45;;;3.80;;
39434;SDS011;66825;51.880;-0.518;2023-01-30T12:06:37;9.40;;;3.55;;
39434;SDS011;66825;51.880;-0.518;2023-01-30T12:09:06;11.65;;;3.20;;
39434;SDS011;66825;51.880;-0.518;2023-01-30T12:11:59;13.63;;;3.35;;
39434;SDS011;66825;51.880;-0.518;2023-01-30T12:14:30;13.93;;;3.45;;
39434;SDS011;66825;51.880;-0.518;2023-01-30T12:17:14;14.30;;;3.15;;
39434;SDS011;66825;51.880;-0.518;2023-01-30T12:22:36;18.83;;;4.13;;
39434;SDS011;66825;51.880;-0.518;2023-01-30T12:25:10;11.40;;;2.88;;
39434;SDS011;66825;51.880;-0.518;2023-01-30T12:27:49;14.02;;;3.47;;
39434;SDS011;66825;51.880;-0.518;2023-01-30T12:32:59;11.30;;;3.53;;
39434;SDS011;66825;51.880;-0.518;2023-01-30T12:35:33;15.63;;;3.67;;
39434;SDS011;66825;51.880;-0.518;2023-01-30T12:40:45;9.25;;;2.50;;
39434;SDS011;66825;51.880;-0.518;2023-01-30T12:43:16;11.73;;;3.10;;
39434;SDS011;66825;51.880;-0.518;2023-01-30T12:48:44;12.73;;;3.40;;
39434;SDS011;66825;51.880;-0.518;2023-01-30T12:59:43;9.73;;;3.00;;
39434;SDS011;66825;51.880;-0.518;2023-01-30T13:05:39;5.97;;;2.30;;
39434;SDS011;66825;51.880;-0.518;2023-01-30T13:19:15;10.88;;;3.13;;
39434;SDS011;66825;51.880;-0.518;2023-01-30T13:22:00;9.48;;;2.70;;
39434;SDS011;66825;51.880;-0.518;2023-01-30T13:24:46;16.40;;;3.58;;
39434;SDS011;66825;51.880;-0.518;2023-01-30T13:27:18;12.85;;;3.05;;
39434;SDS011;66825;51.880;-0.518;2023-01-30T13:29:46;11.15;;;2.92;;
39434;SDS011;66825;51.880;-0.518;2023-01-30T13:35:13;10.00;;;2.80;;
39434;SDS011;66825;51.880;-0.518;2023-01-30T13:37:42;8.75;;;2.63;;
39434;SDS011;66825;51.880;-0.518;2023-01-30T13:45:39;7.72;;;2.15;;
39434;SDS011;66825;51.880;-0.518;2023-01-30T14:10:22;8.25;;;2.55;;
39434;SDS011;66825;51.880;-0.518;2023-01-30T14:15:17;9.82;;;3.05;;
39434;SDS011;66825;51.880;-0.518;2023-01-30T14:20:24;7.57;;;2.65;;
39434;SDS011;66825;51.880;-0.518;2023-01-30T14:22:57;8.40;;;2.40;;
39434;SDS011;66825;51.880;-0.518;2023-01-30T14:30:45;12.52;;;3.13;;
39434;SDS011;66825;51.880;-0.518;2023-01-30T14:38:22;9.48;;;2.80;;
39434;SDS011;66825;51.880;-0.518;2023-01-30T14:59:08;13.85;;;3.00;;
39434;SDS011;66825;51.880;-0.518;2023-01-30T15:01:57;13.77;;;4.22;;
39434;SDS011;66825;51.880;-0.518;2023-01-30T15:10:00;12.70;;;3.40;;
39434;SDS011;66825;51.880;-0.518;2023-01-30T15:18:03;6.43;;;2.65;;
39434;SDS011;66825;51.880;-0.518;2023-01-30T15:28:32;14.80;;;3.40;;
39434;SDS011;66825;51.880;-0.518;2023-01-30T15:31:08;12.88;;;3.30;;
39434;SDS011;66825;51.880;-0.518;2023-01-30T15:33:44;14.43;;;3.70;;
39434;SDS011;66825;51.880;-0.518;2023-01-30T15:36:21;14.50;;;3.28;;
39434;SDS011;66825;51.880;-0.518;2023-01-30T15:39:03;20.40;;;5.80;;
39434;SDS011;66825;51.880;-0.518;2023-01-30T15:46:47;10.93;;;2.85;;
39434;SDS011;66825;51.880;-0.518;2023-01-30T15:51:58;13.50;;;2.90;;
39434;SDS011;66825;51.880;-0.518;2023-01-30T15:54:26;9.43;;;2.60;;
39434;SDS011;66825;51.880;-0.518;2023-01-30T15:56:52;9.25;;;3.17;;
39434;SDS011;66825;51.880;-0.518;2023-01-30T15:59:31;16.27;;;3.60;;
39434;SDS011;66825;51.880;-0.518;2023-01-30T16:02:01;9.50;;;3.08;;
39434;SDS011;66825;51.880;-0.518;2023-01-30T16:04:32;11.75;;;3.20;;
39434;SDS011;66825;51.880;-0.518;2023-01-30T16:06:58;8.27;;;2.80;;
39434;SDS011;66825;51.880;-0.518;2023-01-30T16:09:24;11.38;;;3.05;;
39434;SDS011;66825;51.880;-0.518;2023-01-30T16:11:50;10.73;;;3.00;;
39434;SDS011;66825;51.880;-0.518;2023-01-30T16:14:16;9.32;;;2.92;;
39434;SDS011;66825;51.880;-0.518;2023-01-30T16:16:54;10.07;;;3.00;;
39434;SDS011;66825;51.880;-0.518;2023-01-30T16:19:25;8.65;;;2.80;;
39434;SDS011;66825;51.880;-0.518;2023-01-30T16:21:55;12.80;;;3.17;;
39434;SDS011;66825;51.880;-0.518;2023-01-30T16:24:25;14.48;;;3.30;;
39434;SDS011;66825;51.880;-0.518;2023-01-30T16:26:54;10.68;;;3.53;;
39434;SDS011;66825;51.880;-0.518;2023-01-30T16:29:23;12.48;;;3.20;;
39434;SDS011;66825;51.880;-0.518;2023-01-30T16:31:51;12.23;;;3.08;;
39434;SDS011;66825;51.880;-0.518;2023-01-30T16:39:44;9.50;;;3.10;;
39434;SDS011;66825;51.880;-0.518;2023-01-30T16:44:45;12.55;;;3.35;;
39434;SDS011;66825;51.880;-0.518;2023-01-30T16:47:24;11.75;;;2.90;;
39434;SDS011;66825;51.880;-0.518;2023-01-30T16:49:52;11.18;;;3.47;;
39434;SDS011;66825;51.880;-0.518;2023-01-30T16:55:05;10.27;;;3.15;;
39434;SDS011;66825;51.880;-0.518;2023-01-30T16:57:43;9.82;;;3.17;;
39434;SDS011;66825;51.880;-0.518;2023-01-30T17:00:22;10.98;;;2.90;;
39434;SDS011;66825;51.880;-0.518;2023-01-30T17:02:56;11.68;;;3.30;;
39434;SDS011;66825;51.880;-0.518;2023-01-30T17:05:26;13.35;;;3.67;;
39434;SDS011;66825;51.880;-0.518;2023-01-30T17:07:53;12.13;;;3.38;;
39434;SDS011;66825;51.880;-0.518;2023-01-30T17:13:12;6.82;;;2.50;;
39434;SDS011;66825;51.880;-0.518;2023-01-30T17:15:49;10.02;;;3.33;;
39434;SDS011;66825;51.880;-0.518;2023-01-30T17:18:15;12.40;;;3.50;;
39434;SDS011;66825;51.880;-0.518;2023-01-30T17:20:41;8.57;;;3.15;;
39434;SDS011;66825;51.880;-0.518;2023-01-30T17:23:14;9.88;;;3.83;;
39434;SDS011;66825;51.880;-0.518;2023-01-30T17:25:42;11.95;;;4.10;;
39434;SDS011;66825;51.880;-0.518;2023-01-30T17:28:15;12.90;;;4.35;;
39434;SDS011;66825;51.880;-0.518;2023-01-30T17:30:45;11.70;;;3.83;;
39434;SDS011;66825;51.880;-0.518;2023-01-30T17:33:11;10.23;;;3.80;;
39434;SDS011;66825;51.880;-0.518;2023-01-30T17:35:36;10.63;;;3.88;;
39434;SDS011;66825;51.880;-0.518;2023-01-30T17:38:02;12.02;;;4.25;;
39434;SDS011;66825;51.880;-0.518;2023-01-30T17:40:31;11.48;;;3.95;;
39434;SDS011;66825;51.880;-0.518;2023-01-30T17:42:59;8.70;;;3.95;;
39434;SDS011;66825;51.880;-0.518;2023-01-30T17:45:25;9.57;;;3.65;;
39434;SDS011;66825;51.880;-0.518;2023-01-30T17:47:51;13.02;;;4.07;;
39434;SDS011;66825;51.880;-0.518;2023-01-30T17:50:16;8.43;;;3.90;;
39434;SDS011;66825;51.880;-0.518;2023-01-30T17:52:44;10.68;;;3.78;;
39434;SDS011;66825;51.880;-0.518;2023-01-30T17:55:13;9.90;;;3.72;;
39434;SDS011;66825;51.880;-0.518;2023-01-30T17:57:42;8.95;;;3.53;;
39434;SDS011;66825;51.880;-0.518;2023-01-30T18:00:13;10.23;;;3.63;;
39434;SDS011;66825;51.880;-0.518;2023-01-30T18:02:40;10.43;;;3.60;;
39434;SDS011;66825;51.880;-0.518;2023-01-30T18:05:05;11.50;;;3.70;;
39434;SDS011;66825;51.880;-0.518;2023-01-30T18:07:32;8.70;;;3.72;;
39434;SDS011;66825;51.880;-0.518;2023-01-30T18:09:58;10.75;;;3.50;;
39434;SDS011;66825;51.880;-0.518;2023-01-30T18:12:23;9.57;;;3.22;;
39434;SDS011;66825;51.880;-0.518;2023-01-30T18:14:49;8.35;;;3.17;;
39434;SDS011;66825;51.880;-0.518;2023-01-30T18:17:14;11.80;;;3.67;;
39434;SDS011;66825;51.880;-0.518;2023-01-30T18:19:40;8.80;;;3.35;;